sensor_id;sensor_type;location;lat;lon;timestamp;temperature;humidity
31677;DHT22;18385;51.572;6.578;2024-03-06T00:02:24;10.00;68.40
31677;DHT22;18385;51.572;6.578;2024-03-06T00:04:49;9.90;68.40
31677;DHT22;18385;51.572;6.578;2024-03-06T00:07:15;9.90;68.50
31677;DHT22;18385;51.572;6.578;2024-03-06T00:09:41;9.80;69.30
31677;DHT22;18385;51.572;6.578;2024-03-06T00:12:07;9.80;68.70
31677;DHT22;18385;51.572;6.578;2024-03-06T00:14:32;9.80;68.70
31677;DHT22;18385;51.572;6.578;2024-03-06T00:16:58;9.70;68.60
31677;DHT22;18385;51.572;6.578;2024-03-06T00:19:24;9.70;68.60
31677;DHT22;18385;51.572;6.578;2024-03-06T00:21:50;9.50;68.60
31677;DHT22;18385;51.572;6.578;2024-03-06T00:24:16;9.40;68.70
31677;DHT22;18385;51.572;6.578;2024-03-06T00:26:43;9.30;68.70
31677;DHT22;18385;51.572;6.578;2024-03-06T00:29:10;9.20;68.80
31677;DHT22;18385;51.572;6.578;2024-03-06T00:31:35;9.10;69.20
31677;DHT22;18385;51.572;6.578;2024-03-06T00:34:01;9.10;69.30
31677;DHT22;18385;51.572;6.578;2024-03-06T00:36:27;9.00;69.40
31677;DHT22;18385;51.572;6.578;2024-03-06T00:38:53;8.90;69.40
31677;DHT22;18385;51.572;6.578;2024-03-06T00:41:18;8.80;69.40
31677;DHT22;18385;51.572;6.578;2024-03-06T00:43:44;8.70;69.50
31677;DHT22;18385;51.572;6.578;2024-03-06T00:46:11;8.60;69.60
31677;DHT22;18385;51.572;6.578;2024-03-06T00:48:36;8.60;70.50
31677;DHT22;18385;51.572;6.578;2024-03-06T00:51:05;8.50;69.80
31677;DHT22;18385;51.572;6.578;2024-03-06T00:53:32;8.50;70.00
31677;DHT22;18385;51.572;6.578;2024-03-06T00:55:57;8.50;70.10
31677;DHT22;18385;51.572;6.578;2024-03-06T00:58:23;8.60;70.10
31677;DHT22;18385;51.572;6.578;2024-03-06T01:00:49;8.60;70.10
31677;DHT22;18385;51.572;6.578;2024-03-06T01:03:14;8.70;70.10
31677;DHT22;18385;51.572;6.578;2024-03-06T01:05:40;8.70;70.00
31677;DHT22;18385;51.572;6.578;2024-03-06T01:08:05;8.80;70.00
31677;DHT22;18385;51.572;6.578;2024-03-06T01:10:31;8.90;69.90
31677;DHT22;18385;51.572;6.578;2024-03-06T01:12:57;8.90;69.80
31677;DHT22;18385;51.572;6.578;2024-03-06T01:15:22;9.00;69.80
31677;DHT22;18385;51.572;6.578;2024-03-06T01:17:48;9.00;69.60
31677;DHT22;18385;51.572;6.578;2024-03-06T01:20:15;9.10;69.60
31677;DHT22;18385;51.572;6.578;2024-03-06T01:22:40;9.10;69.50
31677;DHT22;18385;51.572;6.578;2024-03-06T01:25:06;9.10;69.30
31677;DHT22;18385;51.572;6.578;2024-03-06T01:27:32;9.10;69.40
31677;DHT22;18385;51.572;6.578;2024-03-06T01:29:58;9.00;69.40
31677;DHT22;18385;51.572;6.578;2024-03-06T01:32:24;9.00;69.50
31677;DHT22;18385;51.572;6.578;2024-03-06T01:34:49;8.90;69.40
31677;DHT22;18385;51.572;6.578;2024-03-06T01:37:15;8.90;69.60
31677;DHT22;18385;51.572;6.578;2024-03-06T01:39:41;8.90;69.70
31677;DHT22;18385;51.572;6.578;2024-03-06T01:42:07;9.00;69.90
31677;DHT22;18385;51.572;6.578;2024-03-06T01:44:32;9.00;69.90
31677;DHT22;18385;51.572;6.578;2024-03-06T01:46:58;9.00;69.80
31677;DHT22;18385;51.572;6.578;2024-03-06T01:49:25;9.10;69.70
31677;DHT22;18385;51.572;6.578;2024-03-06T01:51:53;9.10;69.50
31677;DHT22;18385;51.572;6.578;2024-03-06T01:54:20;9.10;69.50
31677;DHT22;18385;51.572;6.578;2024-03-06T01:56:47;9.10;69.50
31677;DHT22;18385;51.572;6.578;2024-03-06T01:59:17;9.10;69.50
31677;DHT22;18385;51.572;6.578;2024-03-06T02:01:45;9.00;69.60
31677;DHT22;18385;51.572;6.578;2024-03-06T02:04:12;9.00;69.70
31677;DHT22;18385;51.572;6.578;2024-03-06T02:06:41;8.90;69.80
31677;DHT22;18385;51.572;6.578;2024-03-06T02:09:07;8.90;69.90
31677;DHT22;18385;51.572;6.578;2024-03-06T02:11:47;8.90;69.90
31677;DHT22;18385;51.572;6.578;2024-03-06T02:14:13;8.80;69.90
31677;DHT22;18385;51.572;6.578;2024-03-06T02:16:39;8.80;69.90
31677;DHT22;18385;51.572;6.578;2024-03-06T02:19:05;8.70;69.70
31677;DHT22;18385;51.572;6.578;2024-03-06T02:21:30;8.60;69.70
31677;DHT22;18385;51.572;6.578;2024-03-06T02:23:56;8.50;69.80
31677;DHT22;18385;51.572;6.578;2024-03-06T02:26:22;8.40;69.90
31677;DHT22;18385;51.572;6.578;2024-03-06T02:28:52;8.40;70.10
31677;DHT22;18385;51.572;6.578;2024-03-06T02:31:19;8.30;70.30
31677;DHT22;18385;51.572;6.578;2024-03-06T02:33:49;8.20;70.30
31677;DHT22;18385;51.572;6.578;2024-03-06T02:36:15;8.20;70.40
31677;DHT22;18385;51.572;6.578;2024-03-06T02:38:43;8.20;70.50
31677;DHT22;18385;51.572;6.578;2024-03-06T02:41:09;8.10;70.50
31677;DHT22;18385;51.572;6.578;2024-03-06T02:43:36;8.20;70.60
31677;DHT22;18385;51.572;6.578;2024-03-06T02:46:02;8.20;70.50
31677;DHT22;18385;51.572;6.578;2024-03-06T02:48:27;8.10;70.50
31677;DHT22;18385;51.572;6.578;2024-03-06T02:50:53;8.10;70.50
31677;DHT22;18385;51.572;6.578;2024-03-06T02:53:19;8.10;70.50
31677;DHT22;18385;51.572;6.578;2024-03-06T02:55:44;8.00;70.60
31677;DHT22;18385;51.572;6.578;2024-03-06T02:58:10;8.00;70.80
31677;DHT22;18385;51.572;6.578;2024-03-06T03:00:36;8.00;70.80
31677;DHT22;18385;51.572;6.578;2024-03-06T03:03:02;8.00;70.80
31677;DHT22;18385;51.572;6.578;2024-03-06T03:05:28;8.00;70.60
31677;DHT22;18385;51.572;6.578;2024-03-06T03:07:53;8.00;70.60
31677;DHT22;18385;51.572;6.578;2024-03-06T03:10:19;8.00;70.70
31677;DHT22;18385;51.572;6.578;2024-03-06T03:12:45;8.00;70.60
31677;DHT22;18385;51.572;6.578;2024-03-06T03:15:11;8.00;70.70
31677;DHT22;18385;51.572;6.578;2024-03-06T03:17:36;8.00;70.60
31677;DHT22;18385;51.572;6.578;2024-03-06T03:20:03;7.90;70.50
31677;DHT22;18385;51.572;6.578;2024-03-06T03:22:41;7.90;70.60
31677;DHT22;18385;51.572;6.578;2024-03-06T03:25:11;7.80;70.60
31677;DHT22;18385;51.572;6.578;2024-03-06T03:27:40;7.70;70.60
31677;DHT22;18385;51.572;6.578;2024-03-06T03:30:10;7.70;70.90
31677;DHT22;18385;51.572;6.578;2024-03-06T03:32:37;7.70;70.90
31677;DHT22;18385;51.572;6.578;2024-03-06T03:35:06;7.70;70.90
31677;DHT22;18385;51.572;6.578;2024-03-06T03:37:33;7.70;71.00
31677;DHT22;18385;51.572;6.578;2024-03-06T03:39:59;7.80;70.80
31677;DHT22;18385;51.572;6.578;2024-03-06T03:42:25;7.70;70.60
31677;DHT22;18385;51.572;6.578;2024-03-06T03:44:50;7.70;70.60
31677;DHT22;18385;51.572;6.578;2024-03-06T03:47:17;7.50;70.50
31677;DHT22;18385;51.572;6.578;2024-03-06T03:49:43;7.50;70.70
31677;DHT22;18385;51.572;6.578;2024-03-06T03:52:08;7.40;70.80
31677;DHT22;18385;51.572;6.578;2024-03-06T03:54:34;7.30;70.80
31677;DHT22;18385;51.572;6.578;2024-03-06T03:57:00;7.30;70.90
31677;DHT22;18385;51.572;6.578;2024-03-06T03:59:26;7.20;71.00
31677;DHT22;18385;51.572;6.578;2024-03-06T04:01:52;7.20;71.10
31677;DHT22;18385;51.572;6.578;2024-03-06T04:04:18;7.10;71.10
31677;DHT22;18385;51.572;6.578;2024-03-06T04:06:43;7.10;71.20
31677;DHT22;18385;51.572;6.578;2024-03-06T04:09:10;7.00;71.10
31677;DHT22;18385;51.572;6.578;2024-03-06T04:11:37;7.00;71.10
31677;DHT22;18385;51.572;6.578;2024-03-06T04:14:04;7.00;71.10
31677;DHT22;18385;51.572;6.578;2024-03-06T04:16:30;6.90;71.20
31677;DHT22;18385;51.572;6.578;2024-03-06T04:18:56;6.90;71.30
31677;DHT22;18385;51.572;6.578;2024-03-06T04:21:21;6.80;71.20
31677;DHT22;18385;51.572;6.578;2024-03-06T04:23:48;6.80;71.40
31677;DHT22;18385;51.572;6.578;2024-03-06T04:26:13;6.90;71.60
31677;DHT22;18385;51.572;6.578;2024-03-06T04:28:39;7.00;71.70
31677;DHT22;18385;51.572;6.578;2024-03-06T04:31:05;7.10;71.70
31677;DHT22;18385;51.572;6.578;2024-03-06T04:33:31;7.20;71.70
31677;DHT22;18385;51.572;6.578;2024-03-06T04:35:56;7.30;72.20
31677;DHT22;18385;51.572;6.578;2024-03-06T04:38:22;7.40;71.30
31677;DHT22;18385;51.572;6.578;2024-03-06T04:40:48;7.60;71.10
31677;DHT22;18385;51.572;6.578;2024-03-06T04:43:13;7.60;70.90
31677;DHT22;18385;51.572;6.578;2024-03-06T04:45:39;7.70;70.90
31677;DHT22;18385;51.572;6.578;2024-03-06T04:48:05;7.80;70.80
31677;DHT22;18385;51.572;6.578;2024-03-06T04:50:31;7.80;70.70
31677;DHT22;18385;51.572;6.578;2024-03-06T04:52:58;7.90;70.80
31677;DHT22;18385;51.572;6.578;2024-03-06T04:55:24;7.90;70.70
31677;DHT22;18385;51.572;6.578;2024-03-06T04:57:51;8.00;70.70
31677;DHT22;18385;51.572;6.578;2024-03-06T05:00:17;8.10;70.60
31677;DHT22;18385;51.572;6.578;2024-03-06T05:02:43;8.00;70.30
31677;DHT22;18385;51.572;6.578;2024-03-06T05:05:09;8.00;70.30
31677;DHT22;18385;51.572;6.578;2024-03-06T05:07:35;8.00;70.40
31677;DHT22;18385;51.572;6.578;2024-03-06T05:10:01;8.00;70.40
31677;DHT22;18385;51.572;6.578;2024-03-06T05:12:27;7.90;70.50
31677;DHT22;18385;51.572;6.578;2024-03-06T05:14:54;7.90;70.40
31677;DHT22;18385;51.572;6.578;2024-03-06T05:17:21;7.80;71.00
31677;DHT22;18385;51.572;6.578;2024-03-06T05:19:47;7.70;70.40
31677;DHT22;18385;51.572;6.578;2024-03-06T05:22:14;7.70;70.60
31677;DHT22;18385;51.572;6.578;2024-03-06T05:24:41;7.70;70.70
31677;DHT22;18385;51.572;6.578;2024-03-06T05:27:07;7.70;70.80
31677;DHT22;18385;51.572;6.578;2024-03-06T05:29:33;7.70;70.70
31677;DHT22;18385;51.572;6.578;2024-03-06T05:31:59;7.70;70.70
31677;DHT22;18385;51.572;6.578;2024-03-06T05:34:24;7.70;70.60
31677;DHT22;18385;51.572;6.578;2024-03-06T05:36:50;7.70;70.50
31677;DHT22;18385;51.572;6.578;2024-03-06T05:39:16;7.70;70.40
31677;DHT22;18385;51.572;6.578;2024-03-06T05:41:43;7.60;70.50
31677;DHT22;18385;51.572;6.578;2024-03-06T05:44:09;7.60;70.60
31677;DHT22;18385;51.572;6.578;2024-03-06T05:46:35;7.50;70.70
31677;DHT22;18385;51.572;6.578;2024-03-06T05:49:02;7.50;70.70
31677;DHT22;18385;51.572;6.578;2024-03-06T05:51:28;7.50;70.70
31677;DHT22;18385;51.572;6.578;2024-03-06T05:53:53;7.40;70.70
31677;DHT22;18385;51.572;6.578;2024-03-06T05:56:19;7.40;70.70
31677;DHT22;18385;51.572;6.578;2024-03-06T05:58:46;7.30;70.70
31677;DHT22;18385;51.572;6.578;2024-03-06T06:01:16;7.20;70.90
31677;DHT22;18385;51.572;6.578;2024-03-06T06:03:48;7.20;71.00
31677;DHT22;18385;51.572;6.578;2024-03-06T06:06:15;7.20;70.90
31677;DHT22;18385;51.572;6.578;2024-03-06T06:08:41;7.20;71.10
31677;DHT22;18385;51.572;6.578;2024-03-06T06:11:07;7.20;71.10
31677;DHT22;18385;51.572;6.578;2024-03-06T06:13:33;7.20;71.10
31677;DHT22;18385;51.572;6.578;2024-03-06T06:15:59;7.20;71.20
31677;DHT22;18385;51.572;6.578;2024-03-06T06:18:26;7.20;71.30
31677;DHT22;18385;51.572;6.578;2024-03-06T06:20:52;7.30;71.20
31677;DHT22;18385;51.572;6.578;2024-03-06T06:23:18;7.30;71.10
31677;DHT22;18385;51.572;6.578;2024-03-06T06:25:43;7.30;71.00
31677;DHT22;18385;51.572;6.578;2024-03-06T06:28:09;7.30;71.80
31677;DHT22;18385;51.572;6.578;2024-03-06T06:30:36;7.30;71.00
31677;DHT22;18385;51.572;6.578;2024-03-06T06:33:02;7.40;71.00
31677;DHT22;18385;51.572;6.578;2024-03-06T06:35:28;7.40;70.90
31677;DHT22;18385;51.572;6.578;2024-03-06T06:37:54;7.30;70.80
31677;DHT22;18385;51.572;6.578;2024-03-06T06:40:19;7.30;70.90
31677;DHT22;18385;51.572;6.578;2024-03-06T06:42:47;7.20;71.10
31677;DHT22;18385;51.572;6.578;2024-03-06T06:45:15;7.30;71.20
31677;DHT22;18385;51.572;6.578;2024-03-06T06:47:41;7.30;71.30
31677;DHT22;18385;51.572;6.578;2024-03-06T06:50:07;7.30;71.30
31677;DHT22;18385;51.572;6.578;2024-03-06T06:52:35;7.40;71.30
31677;DHT22;18385;51.572;6.578;2024-03-06T06:55:01;7.50;71.30
31677;DHT22;18385;51.572;6.578;2024-03-06T06:57:27;7.60;71.30
31677;DHT22;18385;51.572;6.578;2024-03-06T06:59:52;7.70;71.10
31677;DHT22;18385;51.572;6.578;2024-03-06T07:02:18;7.80;71.00
31677;DHT22;18385;51.572;6.578;2024-03-06T07:04:44;8.00;71.00
31677;DHT22;18385;51.572;6.578;2024-03-06T07:07:09;8.00;70.80
31677;DHT22;18385;51.572;6.578;2024-03-06T07:09:35;8.10;70.70
31677;DHT22;18385;51.572;6.578;2024-03-06T07:12:01;8.20;71.30
31677;DHT22;18385;51.572;6.578;2024-03-06T07:14:28;8.20;70.50
31677;DHT22;18385;51.572;6.578;2024-03-06T07:16:54;8.30;70.40
31677;DHT22;18385;51.572;6.578;2024-03-06T07:19:19;8.30;70.30
31677;DHT22;18385;51.572;6.578;2024-03-06T07:21:45;8.40;70.40
31677;DHT22;18385;51.572;6.578;2024-03-06T07:24:11;8.40;70.40
31677;DHT22;18385;51.572;6.578;2024-03-06T07:26:37;8.50;70.50
31677;DHT22;18385;51.572;6.578;2024-03-06T07:29:02;8.60;70.40
31677;DHT22;18385;51.572;6.578;2024-03-06T07:31:28;8.70;70.30
31677;DHT22;18385;51.572;6.578;2024-03-06T07:33:54;8.80;70.30
31677;DHT22;18385;51.572;6.578;2024-03-06T07:36:21;8.90;70.20
31677;DHT22;18385;51.572;6.578;2024-03-06T07:38:47;9.00;70.10
31677;DHT22;18385;51.572;6.578;2024-03-06T07:41:13;9.10;69.90
31677;DHT22;18385;51.572;6.578;2024-03-06T07:43:38;9.20;70.60
31677;DHT22;18385;51.572;6.578;2024-03-06T07:46:04;9.30;69.90
31677;DHT22;18385;51.572;6.578;2024-03-06T07:48:37;9.40;69.90
31677;DHT22;18385;51.572;6.578;2024-03-06T07:51:03;9.50;69.70
31677;DHT22;18385;51.572;6.578;2024-03-06T07:53:29;9.70;69.80
31677;DHT22;18385;51.572;6.578;2024-03-06T07:55:55;9.80;69.60
31677;DHT22;18385;51.572;6.578;2024-03-06T07:58:21;10.00;69.60
31677;DHT22;18385;51.572;6.578;2024-03-06T08:00:46;10.10;69.50
31677;DHT22;18385;51.572;6.578;2024-03-06T08:03:12;10.20;69.30
31677;DHT22;18385;51.572;6.578;2024-03-06T08:05:39;10.30;69.20
31677;DHT22;18385;51.572;6.578;2024-03-06T08:08:05;10.30;69.10
31677;DHT22;18385;51.572;6.578;2024-03-06T08:10:31;10.30;68.90
31677;DHT22;18385;51.572;6.578;2024-03-06T08:12:56;10.30;69.00
31677;DHT22;18385;51.572;6.578;2024-03-06T08:15:23;10.30;69.00
31677;DHT22;18385;51.572;6.578;2024-03-06T08:17:49;10.30;68.80
31677;DHT22;18385;51.572;6.578;2024-03-06T08:20:15;10.30;68.60
31677;DHT22;18385;51.572;6.578;2024-03-06T08:22:42;10.40;68.80
31677;DHT22;18385;51.572;6.578;2024-03-06T08:25:09;10.40;68.80
31677;DHT22;18385;51.572;6.578;2024-03-06T08:27:36;10.40;68.50
31677;DHT22;18385;51.572;6.578;2024-03-06T08:30:06;10.40;68.30
31677;DHT22;18385;51.572;6.578;2024-03-06T08:32:32;10.30;68.40
31677;DHT22;18385;51.572;6.578;2024-03-06T08:35:03;10.20;68.70
31677;DHT22;18385;51.572;6.578;2024-03-06T08:37:34;10.20;69.10
31677;DHT22;18385;51.572;6.578;2024-03-06T08:40:00;10.30;69.10
31677;DHT22;18385;51.572;6.578;2024-03-06T08:42:27;10.40;69.00
31677;DHT22;18385;51.572;6.578;2024-03-06T08:44:53;10.40;69.80
31677;DHT22;18385;51.572;6.578;2024-03-06T08:47:19;10.60;68.90
31677;DHT22;18385;51.572;6.578;2024-03-06T08:49:44;10.60;68.90
31677;DHT22;18385;51.572;6.578;2024-03-06T08:52:10;10.80;69.10
31677;DHT22;18385;51.572;6.578;2024-03-06T08:54:36;10.90;69.00
31677;DHT22;18385;51.572;6.578;2024-03-06T08:57:03;10.90;68.80
31677;DHT22;18385;51.572;6.578;2024-03-06T08:59:30;11.00;68.90
31677;DHT22;18385;51.572;6.578;2024-03-06T09:01:55;11.20;68.80
31677;DHT22;18385;51.572;6.578;2024-03-06T09:04:22;11.30;68.60
31677;DHT22;18385;51.572;6.578;2024-03-06T09:06:48;11.30;68.50
31677;DHT22;18385;51.572;6.578;2024-03-06T09:09:14;11.40;68.50
31677;DHT22;18385;51.572;6.578;2024-03-06T09:11:43;11.50;68.60
31677;DHT22;18385;51.572;6.578;2024-03-06T09:14:09;11.60;68.60
31677;DHT22;18385;51.572;6.578;2024-03-06T09:16:35;11.60;68.20
31677;DHT22;18385;51.572;6.578;2024-03-06T09:19:01;11.60;68.10
31677;DHT22;18385;51.572;6.578;2024-03-06T09:21:28;11.60;68.30
31677;DHT22;18385;51.572;6.578;2024-03-06T09:23:53;11.60;68.20
31677;DHT22;18385;51.572;6.578;2024-03-06T09:26:19;11.70;68.40
31677;DHT22;18385;51.572;6.578;2024-03-06T09:28:46;11.80;68.30
31677;DHT22;18385;51.572;6.578;2024-03-06T09:31:12;12.00;68.90
31677;DHT22;18385;51.572;6.578;2024-03-06T09:33:39;12.10;68.10
31677;DHT22;18385;51.572;6.578;2024-03-06T09:36:05;12.10;67.70
31677;DHT22;18385;51.572;6.578;2024-03-06T09:38:31;12.20;67.80
31677;DHT22;18385;51.572;6.578;2024-03-06T09:40:57;12.20;67.80
31677;DHT22;18385;51.572;6.578;2024-03-06T09:43:23;12.20;67.90
31677;DHT22;18385;51.572;6.578;2024-03-06T09:45:50;12.30;68.00
31677;DHT22;18385;51.572;6.578;2024-03-06T09:48:20;12.40;68.00
31677;DHT22;18385;51.572;6.578;2024-03-06T09:50:48;12.40;67.80
31677;DHT22;18385;51.572;6.578;2024-03-06T09:53:16;12.50;67.90
31677;DHT22;18385;51.572;6.578;2024-03-06T09:55:42;12.60;67.90
31677;DHT22;18385;51.572;6.578;2024-03-06T09:58:08;12.80;68.00
31677;DHT22;18385;51.572;6.578;2024-03-06T10:00:35;12.90;68.00
31677;DHT22;18385;51.572;6.578;2024-03-06T10:03:02;13.00;67.80
31677;DHT22;18385;51.572;6.578;2024-03-06T10:05:33;13.20;67.50
31677;DHT22;18385;51.572;6.578;2024-03-06T10:08:03;13.10;67.10
31677;DHT22;18385;51.572;6.578;2024-03-06T10:10:30;13.10;66.90
31677;DHT22;18385;51.572;6.578;2024-03-06T10:12:56;13.00;67.00
31677;DHT22;18385;51.572;6.578;2024-03-06T10:15:29;13.00;67.20
31677;DHT22;18385;51.572;6.578;2024-03-06T10:18:14;13.10;67.40
31677;DHT22;18385;51.572;6.578;2024-03-06T10:20:41;13.30;67.90
31677;DHT22;18385;51.572;6.578;2024-03-06T10:23:10;13.50;67.70
31677;DHT22;18385;51.572;6.578;2024-03-06T10:25:36;13.70;67.40
31677;DHT22;18385;51.572;6.578;2024-03-06T10:28:09;13.70;66.90
31677;DHT22;18385;51.572;6.578;2024-03-06T10:30:40;13.70;66.80
31677;DHT22;18385;51.572;6.578;2024-03-06T10:33:10;13.60;66.40
31677;DHT22;18385;51.572;6.578;2024-03-06T10:35:36;13.50;66.70
31677;DHT22;18385;51.572;6.578;2024-03-06T10:38:04;13.30;66.70
31677;DHT22;18385;51.572;6.578;2024-03-06T10:40:36;13.10;66.80
31677;DHT22;18385;51.572;6.578;2024-03-06T10:43:03;13.00;67.20
31677;DHT22;18385;51.572;6.578;2024-03-06T10:45:34;12.90;67.20
31677;DHT22;18385;51.572;6.578;2024-03-06T10:48:03;12.80;67.40
31677;DHT22;18385;51.572;6.578;2024-03-06T10:50:30;12.80;67.80
31677;DHT22;18385;51.572;6.578;2024-03-06T10:52:56;12.80;67.70
31677;DHT22;18385;51.572;6.578;2024-03-06T10:55:23;12.80;67.60
31677;DHT22;18385;51.572;6.578;2024-03-06T10:57:52;12.70;67.60
31677;DHT22;18385;51.572;6.578;2024-03-06T11:00:19;12.70;67.90
31677;DHT22;18385;51.572;6.578;2024-03-06T11:02:48;12.70;67.90
31677;DHT22;18385;51.572;6.578;2024-03-06T11:05:17;12.70;68.10
31677;DHT22;18385;51.572;6.578;2024-03-06T11:07:43;12.80;68.20
31677;DHT22;18385;51.572;6.578;2024-03-06T11:10:09;13.00;68.30
31677;DHT22;18385;51.572;6.578;2024-03-06T11:12:42;13.10;68.00
31677;DHT22;18385;51.572;6.578;2024-03-06T11:17:36;13.20;67.70
31677;DHT22;18385;51.572;6.578;2024-03-06T11:28:22;13.80;68.00
31677;DHT22;18385;51.572;6.578;2024-03-06T11:31:01;13.90;67.80
31677;DHT22;18385;51.572;6.578;2024-03-06T11:33:28;14.10;67.60
31677;DHT22;18385;51.572;6.578;2024-03-06T11:36:19;14.20;67.40
31677;DHT22;18385;51.572;6.578;2024-03-06T11:39:01;14.30;67.10
31677;DHT22;18385;51.572;6.578;2024-03-06T11:44:01;14.30;66.80
31677;DHT22;18385;51.572;6.578;2024-03-06T11:47:00;14.40;66.90
31677;DHT22;18385;51.572;6.578;2024-03-06T11:49:35;14.40;66.90
31677;DHT22;18385;51.572;6.578;2024-03-06T11:52:09;14.50;66.90
31677;DHT22;18385;51.572;6.578;2024-03-06T11:54:36;14.50;66.90
31677;DHT22;18385;51.572;6.578;2024-03-06T11:57:03;14.50;66.80
31677;DHT22;18385;51.572;6.578;2024-03-06T11:59:31;14.60;67.20
31677;DHT22;18385;51.572;6.578;2024-03-06T12:02:01;14.80;67.10
31677;DHT22;18385;51.572;6.578;2024-03-06T12:04:30;14.80;66.60
31677;DHT22;18385;51.572;6.578;2024-03-06T12:06:57;14.80;66.40
31677;DHT22;18385;51.572;6.578;2024-03-06T12:09:24;14.80;66.40
31677;DHT22;18385;51.572;6.578;2024-03-06T12:11:50;14.80;66.70
31677;DHT22;18385;51.572;6.578;2024-03-06T12:14:19;14.80;66.70
31677;DHT22;18385;51.572;6.578;2024-03-06T12:17:00;14.90;66.80
31677;DHT22;18385;51.572;6.578;2024-03-06T12:19:32;15.10;66.80
31677;DHT22;18385;51.572;6.578;2024-03-06T12:22:04;15.30;66.80
31677;DHT22;18385;51.572;6.578;2024-03-06T12:24:30;15.50;66.50
31677;DHT22;18385;51.572;6.578;2024-03-06T12:27:04;15.70;66.10
31677;DHT22;18385;51.572;6.578;2024-03-06T12:29:31;15.90;66.00
31677;DHT22;18385;51.572;6.578;2024-03-06T12:32:01;16.00;65.60
31677;DHT22;18385;51.572;6.578;2024-03-06T12:34:27;16.10;65.30
31677;DHT22;18385;51.572;6.578;2024-03-06T12:36:52;16.20;65.10
31677;DHT22;18385;51.572;6.578;2024-03-06T12:39:18;16.20;65.00
31677;DHT22;18385;51.572;6.578;2024-03-06T12:41:49;16.20;64.70
31677;DHT22;18385;51.572;6.578;2024-03-06T12:44:15;16.10;64.80
31677;DHT22;18385;51.572;6.578;2024-03-06T12:46:41;16.10;64.70
31677;DHT22;18385;51.572;6.578;2024-03-06T12:49:06;16.20;64.90
31677;DHT22;18385;51.572;6.578;2024-03-06T12:51:32;16.30;64.90
31677;DHT22;18385;51.572;6.578;2024-03-06T12:53:58;16.30;64.50
31677;DHT22;18385;51.572;6.578;2024-03-06T12:56:24;16.30;64.40
31677;DHT22;18385;51.572;6.578;2024-03-06T12:58:51;16.30;64.20
31677;DHT22;18385;51.572;6.578;2024-03-06T13:01:17;16.20;64.40
31677;DHT22;18385;51.572;6.578;2024-03-06T13:03:42;16.20;64.70
31677;DHT22;18385;51.572;6.578;2024-03-06T13:06:08;16.30;65.10
31677;DHT22;18385;51.572;6.578;2024-03-06T13:08:34;16.50;65.00
31677;DHT22;18385;51.572;6.578;2024-03-06T13:11:00;16.80;64.80
31677;DHT22;18385;51.572;6.578;2024-03-06T13:13:25;17.00;64.60
31677;DHT22;18385;51.572;6.578;2024-03-06T13:15:54;17.10;64.00
31677;DHT22;18385;51.572;6.578;2024-03-06T13:18:20;17.20;63.70
31677;DHT22;18385;51.572;6.578;2024-03-06T13:20:45;17.20;63.40
31677;DHT22;18385;51.572;6.578;2024-03-06T13:23:12;17.20;63.30
31677;DHT22;18385;51.572;6.578;2024-03-06T13:25:38;17.10;63.00
31677;DHT22;18385;51.572;6.578;2024-03-06T13:28:04;17.10;63.30
31677;DHT22;18385;51.572;6.578;2024-03-06T13:30:30;17.10;63.30
31677;DHT22;18385;51.572;6.578;2024-03-06T13:32:56;17.10;63.30
31677;DHT22;18385;51.572;6.578;2024-03-06T13:35:22;17.10;62.80
31677;DHT22;18385;51.572;6.578;2024-03-06T13:37:48;17.10;62.80
31677;DHT22;18385;51.572;6.578;2024-03-06T13:40:15;17.00;62.90
31677;DHT22;18385;51.572;6.578;2024-03-06T13:42:41;17.10;63.20
31677;DHT22;18385;51.572;6.578;2024-03-06T13:45:08;17.40;63.50
31677;DHT22;18385;51.572;6.578;2024-03-06T13:47:38;18.10;63.70
31677;DHT22;18385;51.572;6.578;2024-03-06T13:50:15;18.70;63.40
31677;DHT22;18385;51.572;6.578;2024-03-06T13:52:42;19.00;62.30
31677;DHT22;18385;51.572;6.578;2024-03-06T13:55:09;19.30;63.00
31677;DHT22;18385;51.572;6.578;2024-03-06T13:57:36;19.50;62.70
31677;DHT22;18385;51.572;6.578;2024-03-06T14:00:03;19.80;62.30
31677;DHT22;18385;51.572;6.578;2024-03-06T14:02:37;20.00;62.20
31677;DHT22;18385;51.572;6.578;2024-03-06T14:05:03;20.00;61.80
31677;DHT22;18385;51.572;6.578;2024-03-06T14:07:28;20.30;61.90
31677;DHT22;18385;51.572;6.578;2024-03-06T14:09:54;20.30;60.90
31677;DHT22;18385;51.572;6.578;2024-03-06T14:12:22;20.40;61.10
31677;DHT22;18385;51.572;6.578;2024-03-06T14:14:48;20.60;60.70
31677;DHT22;18385;51.572;6.578;2024-03-06T14:17:14;20.70;60.40
31677;DHT22;18385;51.572;6.578;2024-03-06T14:19:40;20.90;60.20
31677;DHT22;18385;51.572;6.578;2024-03-06T14:22:07;21.20;60.00
31677;DHT22;18385;51.572;6.578;2024-03-06T14:24:32;21.40;59.50
31677;DHT22;18385;51.572;6.578;2024-03-06T14:26:58;21.10;57.60
31677;DHT22;18385;51.572;6.578;2024-03-06T14:29:24;20.40;57.50
31677;DHT22;18385;51.572;6.578;2024-03-06T14:31:51;20.20;58.50
31677;DHT22;18385;51.572;6.578;2024-03-06T14:34:17;20.50;59.70
31677;DHT22;18385;51.572;6.578;2024-03-06T14:36:42;21.10;59.70
31677;DHT22;18385;51.572;6.578;2024-03-06T14:39:08;21.50;59.00
31677;DHT22;18385;51.572;6.578;2024-03-06T14:41:36;22.00;58.50
31677;DHT22;18385;51.572;6.578;2024-03-06T14:44:02;22.30;57.80
31677;DHT22;18385;51.572;6.578;2024-03-06T14:46:28;22.60;57.30
31677;DHT22;18385;51.572;6.578;2024-03-06T14:48:54;22.90;56.80
31677;DHT22;18385;51.572;6.578;2024-03-06T14:51:22;23.10;56.10
31677;DHT22;18385;51.572;6.578;2024-03-06T14:53:47;23.10;55.40
31677;DHT22;18385;51.572;6.578;2024-03-06T14:56:13;23.20;55.30
31677;DHT22;18385;51.572;6.578;2024-03-06T14:58:39;23.10;54.80
31677;DHT22;18385;51.572;6.578;2024-03-06T15:01:05;22.90;54.40
31677;DHT22;18385;51.572;6.578;2024-03-06T15:03:31;22.20;54.10
31677;DHT22;18385;51.572;6.578;2024-03-06T15:05:57;21.60;54.30
31677;DHT22;18385;51.572;6.578;2024-03-06T15:08:22;20.90;53.90
31677;DHT22;18385;51.572;6.578;2024-03-06T15:10:49;20.10;54.00
31677;DHT22;18385;51.572;6.578;2024-03-06T15:13:17;19.40;54.60
31677;DHT22;18385;51.572;6.578;2024-03-06T15:15:44;18.90;55.00
31677;DHT22;18385;51.572;6.578;2024-03-06T15:18:10;18.60;55.40
31677;DHT22;18385;51.572;6.578;2024-03-06T15:20:35;18.40;55.70
31677;DHT22;18385;51.572;6.578;2024-03-06T15:23:02;18.30;55.70
31677;DHT22;18385;51.572;6.578;2024-03-06T15:25:27;18.10;55.80
31677;DHT22;18385;51.572;6.578;2024-03-06T15:27:53;17.90;55.70
31677;DHT22;18385;51.572;6.578;2024-03-06T15:30:19;17.70;55.80
31677;DHT22;18385;51.572;6.578;2024-03-06T15:32:46;17.50;55.60
31677;DHT22;18385;51.572;6.578;2024-03-06T15:35:12;17.30;55.70
31677;DHT22;18385;51.572;6.578;2024-03-06T15:37:37;17.20;55.80
31677;DHT22;18385;51.572;6.578;2024-03-06T15:40:04;17.00;55.80
31677;DHT22;18385;51.572;6.578;2024-03-06T15:42:31;16.90;56.00
31677;DHT22;18385;51.572;6.578;2024-03-06T15:44:57;16.90;56.10
31677;DHT22;18385;51.572;6.578;2024-03-06T15:47:23;16.90;56.20
31677;DHT22;18385;51.572;6.578;2024-03-06T15:49:48;16.90;56.20